sensor_id;sensor_type;location;lat;lon;timestamp;temperature;humidity
51655;DHT22;37732;53.106;7.030;2022-08-21T00:01:27;15.90;99.90
51655;DHT22;37732;53.106;7.030;2022-08-21T00:03:54;15.90;99.90
51655;DHT22;37732;53.106;7.030;2022-08-21T00:06:21;15.90;99.90
51655;DHT22;37732;53.106;7.030;2022-08-21T00:08:46;15.90;99.90
51655;DHT22;37732;53.106;7.030;2022-08-21T00:11:13;15.70;99.90
51655;DHT22;37732;53.106;7.030;2022-08-21T00:13:39;15.80;99.90
51655;DHT22;37732;53.106;7.030;2022-08-21T00:16:04;15.80;99.90
51655;DHT22;37732;53.106;7.030;2022-08-21T00:18:31;15.80;99.90
51655;DHT22;37732;53.106;7.030;2022-08-21T00:20:56;15.80;99.90
51655;DHT22;37732;53.106;7.030;2022-08-21T00:23:22;16.10;99.90
51655;DHT22;37732;53.106;7.030;2022-08-21T00:25:48;16.10;99.90
51655;DHT22;37732;53.106;7.030;2022-08-21T00:28:14;16.00;99.90
51655;DHT22;37732;53.106;7.030;2022-08-21T00:30:41;15.60;99.90
51655;DHT22;37732;53.106;7.030;2022-08-21T00:33:06;15.60;99.90
51655;DHT22;37732;53.106;7.030;2022-08-21T00:35:36;15.60;99.90
51655;DHT22;37732;53.106;7.030;2022-08-21T00:38:04;15.60;99.90
51655;DHT22;37732;53.106;7.030;2022-08-21T00:43:07;15.60;99.90
51655;DHT22;37732;53.106;7.030;2022-08-21T00:45:34;15.60;99.90
51655;DHT22;37732;53.106;7.030;2022-08-21T00:48:00;15.40;99.90
51655;DHT22;37732;53.106;7.030;2022-08-21T00:50:29;15.40;99.90
51655;DHT22;37732;53.106;7.030;2022-08-21T00:52:55;15.50;99.90
51655;DHT22;37732;53.106;7.030;2022-08-21T00:55:23;15.40;99.90
51655;DHT22;37732;53.106;7.030;2022-08-21T00:57:52;15.40;99.90
51655;DHT22;37732;53.106;7.030;2022-08-21T01:00:25;15.40;99.90
51655;DHT22;37732;53.106;7.030;2022-08-21T01:02:53;15.50;99.90
51655;DHT22;37732;53.106;7.030;2022-08-21T01:05:19;15.30;99.90
51655;DHT22;37732;53.106;7.030;2022-08-21T01:07:45;15.30;99.90
51655;DHT22;37732;53.106;7.030;2022-08-21T01:10:11;15.30;99.90
51655;DHT22;37732;53.106;7.030;2022-08-21T01:12:38;15.30;99.90
51655;DHT22;37732;53.106;7.030;2022-08-21T01:15:07;15.20;99.90
51655;DHT22;37732;53.106;7.030;2022-08-21T01:17:33;15.20;99.90
51655;DHT22;37732;53.106;7.030;2022-08-21T01:20:01;15.10;99.90
51655;DHT22;37732;53.106;7.030;2022-08-21T01:22:28;15.10;99.90
51655;DHT22;37732;53.106;7.030;2022-08-21T01:24:53;15.10;99.90
51655;DHT22;37732;53.106;7.030;2022-08-21T01:27:19;15.10;99.90
51655;DHT22;37732;53.106;7.030;2022-08-21T01:29:56;15.10;99.90
51655;DHT22;37732;53.106;7.030;2022-08-21T01:32:23;15.00;99.90
51655;DHT22;37732;53.106;7.030;2022-08-21T01:34:50;15.00;99.90
51655;DHT22;37732;53.106;7.030;2022-08-21T01:37:17;14.90;99.90
51655;DHT22;37732;53.106;7.030;2022-08-21T01:39:43;14.90;99.90
51655;DHT22;37732;53.106;7.030;2022-08-21T01:42:08;14.80;99.90
51655;DHT22;37732;53.106;7.030;2022-08-21T01:44:35;14.80;99.90
51655;DHT22;37732;53.106;7.030;2022-08-21T01:47:04;14.70;99.90
51655;DHT22;37732;53.106;7.030;2022-08-21T01:49:30;14.70;99.90
51655;DHT22;37732;53.106;7.030;2022-08-21T01:51:56;14.60;99.90
51655;DHT22;37732;53.106;7.030;2022-08-21T01:54:22;14.60;99.90
51655;DHT22;37732;53.106;7.030;2022-08-21T01:56:50;14.60;99.90
51655;DHT22;37732;53.106;7.030;2022-08-21T01:59:16;14.60;99.90
51655;DHT22;37732;53.106;7.030;2022-08-21T02:01:42;14.50;99.90
51655;DHT22;37732;53.106;7.030;2022-08-21T02:04:09;14.50;99.90
51655;DHT22;37732;53.106;7.030;2022-08-21T02:06:35;14.50;99.90
51655;DHT22;37732;53.106;7.030;2022-08-21T02:09:03;14.50;99.90
51655;DHT22;37732;53.106;7.030;2022-08-21T02:11:30;14.50;99.90
51655;DHT22;37732;53.106;7.030;2022-08-21T02:13:56;14.40;99.90
51655;DHT22;37732;53.106;7.030;2022-08-21T02:16:22;14.40;99.90
51655;DHT22;37732;53.106;7.030;2022-08-21T02:18:48;14.40;99.90
51655;DHT22;37732;53.106;7.030;2022-08-21T02:21:13;14.30;99.90
51655;DHT22;37732;53.106;7.030;2022-08-21T02:23:39;14.30;99.90
51655;DHT22;37732;53.106;7.030;2022-08-21T02:26:06;14.50;99.90
51655;DHT22;37732;53.106;7.030;2022-08-21T02:28:32;14.30;99.90
51655;DHT22;37732;53.106;7.030;2022-08-21T02:30:58;14.30;99.90
51655;DHT22;37732;53.106;7.030;2022-08-21T02:33:24;14.30;99.90
51655;DHT22;37732;53.106;7.030;2022-08-21T02:35:50;14.20;99.90
51655;DHT22;37732;53.106;7.030;2022-08-21T02:38:23;14.20;99.90
51655;DHT22;37732;53.106;7.030;2022-08-21T02:40:50;14.20;99.90
51655;DHT22;37732;53.106;7.030;2022-08-21T02:43:18;14.10;99.90
51655;DHT22;37732;53.106;7.030;2022-08-21T02:45:45;14.30;99.90
51655;DHT22;37732;53.106;7.030;2022-08-21T02:48:15;14.10;99.90
51655;DHT22;37732;53.106;7.030;2022-08-21T02:50:48;14.00;99.90
51655;DHT22;37732;53.106;7.030;2022-08-21T02:53:16;14.00;99.90
51655;DHT22;37732;53.106;7.030;2022-08-21T02:55:44;13.90;99.90
51655;DHT22;37732;53.106;7.030;2022-08-21T02:58:10;13.90;99.90
51655;DHT22;37732;53.106;7.030;2022-08-21T03:00:39;13.80;99.90
51655;DHT22;37732;53.106;7.030;2022-08-21T03:03:05;13.90;99.90
51655;DHT22;37732;53.106;7.030;2022-08-21T03:05:32;13.80;99.90
51655;DHT22;37732;53.106;7.030;2022-08-21T03:08:00;13.70;99.90
51655;DHT22;37732;53.106;7.030;2022-08-21T03:10:26;13.70;99.90
51655;DHT22;37732;53.106;7.030;2022-08-21T03:12:52;13.70;99.90
51655;DHT22;37732;53.106;7.030;2022-08-21T03:15:20;13.70;99.90
51655;DHT22;37732;53.106;7.030;2022-08-21T03:17:46;13.60;99.90
51655;DHT22;37732;53.106;7.030;2022-08-21T03:20:14;13.60;99.90
51655;DHT22;37732;53.106;7.030;2022-08-21T03:22:40;13.60;99.90
51655;DHT22;37732;53.106;7.030;2022-08-21T03:25:07;13.50;99.90
51655;DHT22;37732;53.106;7.030;2022-08-21T03:27:34;13.50;99.90
51655;DHT22;37732;53.106;7.030;2022-08-21T03:30:00;13.50;99.90
51655;DHT22;37732;53.106;7.030;2022-08-21T03:32:26;13.50;99.90
51655;DHT22;37732;53.106;7.030;2022-08-21T03:34:52;13.50;99.90
51655;DHT22;37732;53.106;7.030;2022-08-21T03:37:18;13.40;99.90
51655;DHT22;37732;53.106;7.030;2022-08-21T03:39:44;13.40;99.90
51655;DHT22;37732;53.106;7.030;2022-08-21T03:42:11;13.40;99.90
51655;DHT22;37732;53.106;7.030;2022-08-21T03:44:37;13.30;99.90
51655;DHT22;37732;53.106;7.030;2022-08-21T03:47:03;13.50;99.90
51655;DHT22;37732;53.106;7.030;2022-08-21T03:49:29;13.30;99.90
51655;DHT22;37732;53.106;7.030;2022-08-21T03:51:55;14.20;99.90
51655;DHT22;37732;53.106;7.030;2022-08-21T03:54:21;13.50;99.90
51655;DHT22;37732;53.106;7.030;2022-08-21T03:56:47;13.50;99.90
51655;DHT22;37732;53.106;7.030;2022-08-21T03:59:13;13.70;99.90
51655;DHT22;37732;53.106;7.030;2022-08-21T04:01:38;13.40;99.90
51655;DHT22;37732;53.106;7.030;2022-08-21T04:04:05;13.50;99.90
51655;DHT22;37732;53.106;7.030;2022-08-21T04:06:32;13.20;99.90
51655;DHT22;37732;53.106;7.030;2022-08-21T04:08:58;13.30;99.90
51655;DHT22;37732;53.106;7.030;2022-08-21T04:11:24;13.50;99.90
51655;DHT22;37732;53.106;7.030;2022-08-21T04:13:49;13.20;99.90
51655;DHT22;37732;53.106;7.030;2022-08-21T04:16:15;13.60;99.90
51655;DHT22;37732;53.106;7.030;2022-08-21T04:18:41;13.10;99.90
51655;DHT22;37732;53.106;7.030;2022-08-21T04:21:09;13.10;99.90
51655;DHT22;37732;53.106;7.030;2022-08-21T04:23:36;13.20;99.90
51655;DHT22;37732;53.106;7.030;2022-08-21T04:26:02;12.90;99.90
51655;DHT22;37732;53.106;7.030;2022-08-21T04:28:28;13.10;99.90
51655;DHT22;37732;53.106;7.030;2022-08-21T04:30:55;12.90;99.90
51655;DHT22;37732;53.106;7.030;2022-08-21T04:33:21;13.50;99.90
51655;DHT22;37732;53.106;7.030;2022-08-21T04:35:47;13.10;99.90
51655;DHT22;37732;53.106;7.030;2022-08-21T04:38:13;13.20;99.90
51655;DHT22;37732;53.106;7.030;2022-08-21T04:40:38;13.10;99.90
51655;DHT22;37732;53.106;7.030;2022-08-21T04:43:08;13.10;99.90
51655;DHT22;37732;53.106;7.030;2022-08-21T04:45:43;12.40;99.90
51655;DHT22;37732;53.106;7.030;2022-08-21T04:48:11;13.10;99.90
51655;DHT22;37732;53.106;7.030;2022-08-21T04:50:45;13.10;99.90
51655;DHT22;37732;53.106;7.030;2022-08-21T04:53:18;13.10;99.90
51655;DHT22;37732;53.106;7.030;2022-08-21T04:55:45;13.10;99.90
51655;DHT22;37732;53.106;7.030;2022-08-21T04:58:13;13.10;99.90
51655;DHT22;37732;53.106;7.030;2022-08-21T05:00:40;13.80;99.90
51655;DHT22;37732;53.106;7.030;2022-08-21T05:03:07;13.00;99.90
51655;DHT22;37732;53.106;7.030;2022-08-21T05:05:35;13.00;99.90
51655;DHT22;37732;53.106;7.030;2022-08-21T05:08:02;14.10;99.90
51655;DHT22;37732;53.106;7.030;2022-08-21T05:10:28;13.20;99.90
51655;DHT22;37732;53.106;7.030;2022-08-21T05:12:55;13.20;99.90
51655;DHT22;37732;53.106;7.030;2022-08-21T05:15:21;13.80;99.90
51655;DHT22;37732;53.106;7.030;2022-08-21T05:17:47;13.20;99.90
51655;DHT22;37732;53.106;7.030;2022-08-21T05:20:13;13.30;99.90
51655;DHT22;37732;53.106;7.030;2022-08-21T05:22:39;14.40;99.90
51655;DHT22;37732;53.106;7.030;2022-08-21T05:25:06;13.40;99.90
51655;DHT22;37732;53.106;7.030;2022-08-21T05:27:32;13.40;99.90
51655;DHT22;37732;53.106;7.030;2022-08-21T05:29:58;13.50;99.90
51655;DHT22;37732;53.106;7.030;2022-08-21T05:32:24;13.60;99.90
51655;DHT22;37732;53.106;7.030;2022-08-21T05:34:50;13.60;99.90
51655;DHT22;37732;53.106;7.030;2022-08-21T05:37:16;13.60;99.90
51655;DHT22;37732;53.106;7.030;2022-08-21T05:39:42;14.70;99.90
51655;DHT22;37732;53.106;7.030;2022-08-21T05:42:07;13.90;99.90
51655;DHT22;37732;53.106;7.030;2022-08-21T05:44:33;14.00;99.90
51655;DHT22;37732;53.106;7.030;2022-08-21T05:47:17;14.00;99.90
51655;DHT22;37732;53.106;7.030;2022-08-21T05:49:42;14.20;99.90
51655;DHT22;37732;53.106;7.030;2022-08-21T05:52:08;14.20;99.90
51655;DHT22;37732;53.106;7.030;2022-08-21T05:54:36;14.30;99.90
51655;DHT22;37732;53.106;7.030;2022-08-21T05:57:03;15.20;99.90
51655;DHT22;37732;53.106;7.030;2022-08-21T05:59:28;14.60;99.90
51655;DHT22;37732;53.106;7.030;2022-08-21T06:01:54;14.70;99.90
51655;DHT22;37732;53.106;7.030;2022-08-21T06:04:20;14.70;99.90
51655;DHT22;37732;53.106;7.030;2022-08-21T06:06:45;15.00;99.90
51655;DHT22;37732;53.106;7.030;2022-08-21T06:09:12;15.00;99.90
51655;DHT22;37732;53.106;7.030;2022-08-21T06:11:38;15.20;99.90
51655;DHT22;37732;53.106;7.030;2022-08-21T06:14:04;15.30;99.90
51655;DHT22;37732;53.106;7.030;2022-08-21T06:16:32;15.50;99.90
51655;DHT22;37732;53.106;7.030;2022-08-21T06:18:57;15.60;99.90
51655;DHT22;37732;53.106;7.030;2022-08-21T06:21:23;15.70;99.90
51655;DHT22;37732;53.106;7.030;2022-08-21T06:23:48;15.90;99.90
51655;DHT22;37732;53.106;7.030;2022-08-21T06:26:14;16.10;99.90
51655;DHT22;37732;53.106;7.030;2022-08-21T06:28:41;16.30;99.90
51655;DHT22;37732;53.106;7.030;2022-08-21T06:31:21;16.40;99.90
51655;DHT22;37732;53.106;7.030;2022-08-21T06:33:47;16.50;99.90
51655;DHT22;37732;53.106;7.030;2022-08-21T06:36:13;16.60;99.90
51655;DHT22;37732;53.106;7.030;2022-08-21T06:38:39;16.70;99.90
51655;DHT22;37732;53.106;7.030;2022-08-21T06:41:06;16.70;99.90
51655;DHT22;37732;53.106;7.030;2022-08-21T06:43:41;17.00;99.90
51655;DHT22;37732;53.106;7.030;2022-08-21T06:46:13;17.10;99.90
51655;DHT22;37732;53.106;7.030;2022-08-21T06:48:38;17.20;99.90
51655;DHT22;37732;53.106;7.030;2022-08-21T06:51:04;17.40;99.90
51655;DHT22;37732;53.106;7.030;2022-08-21T06:53:30;17.50;99.90
51655;DHT22;37732;53.106;7.030;2022-08-21T06:55:55;17.60;99.90
51655;DHT22;37732;53.106;7.030;2022-08-21T07:03:24;18.30;99.90
51655;DHT22;37732;53.106;7.030;2022-08-21T07:05:53;18.30;99.90
51655;DHT22;37732;53.106;7.030;2022-08-21T07:08:20;18.40;99.90
51655;DHT22;37732;53.106;7.030;2022-08-21T07:10:47;18.40;99.90
51655;DHT22;37732;53.106;7.030;2022-08-21T07:13:14;18.60;99.90
51655;DHT22;37732;53.106;7.030;2022-08-21T07:15:40;18.70;99.90
51655;DHT22;37732;53.106;7.030;2022-08-21T07:18:06;18.90;99.90
51655;DHT22;37732;53.106;7.030;2022-08-21T07:20:32;19.00;99.90
51655;DHT22;37732;53.106;7.030;2022-08-21T07:23:02;19.10;99.90
51655;DHT22;37732;53.106;7.030;2022-08-21T07:25:28;19.30;99.90
51655;DHT22;37732;53.106;7.030;2022-08-21T07:27:55;19.50;99.90
51655;DHT22;37732;53.106;7.030;2022-08-21T07:30:21;19.60;99.90
51655;DHT22;37732;53.106;7.030;2022-08-21T07:32:47;19.60;99.90
51655;DHT22;37732;53.106;7.030;2022-08-21T07:35:15;19.70;99.90
51655;DHT22;37732;53.106;7.030;2022-08-21T07:37:41;20.00;99.90
51655;DHT22;37732;53.106;7.030;2022-08-21T07:40:07;20.10;99.90
51655;DHT22;37732;53.106;7.030;2022-08-21T07:42:33;20.10;99.90
51655;DHT22;37732;53.106;7.030;2022-08-21T07:44:59;20.20;99.90
51655;DHT22;37732;53.106;7.030;2022-08-21T07:47:24;20.30;99.90
51655;DHT22;37732;53.106;7.030;2022-08-21T07:49:50;20.40;99.90
51655;DHT22;37732;53.106;7.030;2022-08-21T07:52:16;20.50;99.90
51655;DHT22;37732;53.106;7.030;2022-08-21T07:54:41;20.60;99.90
51655;DHT22;37732;53.106;7.030;2022-08-21T07:57:07;20.80;99.90
51655;DHT22;37732;53.106;7.030;2022-08-21T07:59:33;21.00;99.90
51655;DHT22;37732;53.106;7.030;2022-08-21T08:01:58;21.10;99.90
51655;DHT22;37732;53.106;7.030;2022-08-21T08:04:24;21.20;99.90
51655;DHT22;37732;53.106;7.030;2022-08-21T08:06:50;21.20;99.90
51655;DHT22;37732;53.106;7.030;2022-08-21T08:09:15;21.30;99.90
51655;DHT22;37732;53.106;7.030;2022-08-21T08:11:42;21.40;99.90
51655;DHT22;37732;53.106;7.030;2022-08-21T08:14:09;21.40;99.90
51655;DHT22;37732;53.106;7.030;2022-08-21T08:16:35;21.50;99.90
51655;DHT22;37732;53.106;7.030;2022-08-21T08:19:01;21.60;99.90
51655;DHT22;37732;53.106;7.030;2022-08-21T08:21:26;21.80;99.90
51655;DHT22;37732;53.106;7.030;2022-08-21T08:23:53;21.90;99.90
51655;DHT22;37732;53.106;7.030;2022-08-21T08:26:18;22.00;99.90
51655;DHT22;37732;53.106;7.030;2022-08-21T08:28:44;22.00;99.90
51655;DHT22;37732;53.106;7.030;2022-08-21T08:31:12;21.90;99.90
51655;DHT22;37732;53.106;7.030;2022-08-21T08:33:38;22.30;99.90
51655;DHT22;37732;53.106;7.030;2022-08-21T08:36:03;22.40;99.90
51655;DHT22;37732;53.106;7.030;2022-08-21T08:38:29;22.50;99.90
51655;DHT22;37732;53.106;7.030;2022-08-21T08:40:57;22.50;99.90
51655;DHT22;37732;53.106;7.030;2022-08-21T08:43:27;22.50;99.90
51655;DHT22;37732;53.106;7.030;2022-08-21T08:45:56;22.50;99.90
51655;DHT22;37732;53.106;7.030;2022-08-21T08:54:03;23.10;99.90
51655;DHT22;37732;53.106;7.030;2022-08-21T08:56:33;23.20;99.90
51655;DHT22;37732;53.106;7.030;2022-08-21T08:59:11;23.30;99.90
51655;DHT22;37732;53.106;7.030;2022-08-21T09:01:39;23.40;99.90
51655;DHT22;37732;53.106;7.030;2022-08-21T09:04:05;23.40;99.90
51655;DHT22;37732;53.106;7.030;2022-08-21T09:12:37;23.50;99.90
51655;DHT22;37732;53.106;7.030;2022-08-21T09:17:59;23.80;99.90
51655;DHT22;37732;53.106;7.030;2022-08-21T09:20:43;24.00;99.90
51655;DHT22;37732;53.106;7.030;2022-08-21T09:26:04;24.30;99.90
51655;DHT22;37732;53.106;7.030;2022-08-21T09:28:35;24.00;99.80
51655;DHT22;37732;53.106;7.030;2022-08-21T09:33:47;23.80;99.60
51655;DHT22;37732;53.106;7.030;2022-08-21T09:36:24;23.90;99.70
51655;DHT22;37732;53.106;7.030;2022-08-21T09:38:53;23.80;98.80
51655;DHT22;37732;53.106;7.030;2022-08-21T09:41:29;23.80;99.00
51655;DHT22;37732;53.106;7.030;2022-08-21T09:43:57;23.90;99.30
51655;DHT22;37732;53.106;7.030;2022-08-21T09:46:25;24.10;99.90
51655;DHT22;37732;53.106;7.030;2022-08-21T09:48:55;24.20;99.90
51655;DHT22;37732;53.106;7.030;2022-08-21T09:51:35;24.40;99.20
51655;DHT22;37732;53.106;7.030;2022-08-21T09:56:37;24.70;97.70
51655;DHT22;37732;53.106;7.030;2022-08-21T09:59:33;24.70;96.90
51655;DHT22;37732;53.106;7.030;2022-08-21T10:02:02;24.80;97.50
51655;DHT22;37732;53.106;7.030;2022-08-21T10:04:31;24.90;97.80
51655;DHT22;37732;53.106;7.030;2022-08-21T10:07:12;24.90;97.00
51655;DHT22;37732;53.106;7.030;2022-08-21T10:09:38;24.90;96.10
51655;DHT22;37732;53.106;7.030;2022-08-21T10:12:21;24.80;97.90
51655;DHT22;37732;53.106;7.030;2022-08-21T10:17:27;25.00;97.50
51655;DHT22;37732;53.106;7.030;2022-08-21T10:22:42;25.00;97.40
51655;DHT22;37732;53.106;7.030;2022-08-21T10:25:26;25.10;95.20
51655;DHT22;37732;53.106;7.030;2022-08-21T10:30:41;25.50;95.90
51655;DHT22;37732;53.106;7.030;2022-08-21T10:33:33;25.50;95.50
51655;DHT22;37732;53.106;7.030;2022-08-21T10:44:26;25.60;94.10
51655;DHT22;37732;53.106;7.030;2022-08-21T10:47:05;25.50;94.20
51655;DHT22;37732;53.106;7.030;2022-08-21T10:55:16;25.60;93.20
51655;DHT22;37732;53.106;7.030;2022-08-21T10:57:58;26.00;95.20
51655;DHT22;37732;53.106;7.030;2022-08-21T11:00:33;26.30;94.70
51655;DHT22;37732;53.106;7.030;2022-08-21T11:03:24;26.50;95.30
51655;DHT22;37732;53.106;7.030;2022-08-21T11:06:30;26.60;91.20
51655;DHT22;37732;53.106;7.030;2022-08-21T11:09:20;26.80;93.30
51655;DHT22;37732;53.106;7.030;2022-08-21T11:14:49;26.90;88.80
51655;DHT22;37732;53.106;7.030;2022-08-21T11:17:24;26.90;90.40
51655;DHT22;37732;53.106;7.030;2022-08-21T11:20:08;26.90;88.60
51655;DHT22;37732;53.106;7.030;2022-08-21T11:22:47;26.90;86.60
51655;DHT22;37732;53.106;7.030;2022-08-21T11:25:31;27.00;87.20
51655;DHT22;37732;53.106;7.030;2022-08-21T11:28:07;27.30;86.70
51655;DHT22;37732;53.106;7.030;2022-08-21T11:33:48;27.50;81.20
51655;DHT22;37732;53.106;7.030;2022-08-21T11:36:42;27.40;78.20
51655;DHT22;37732;53.106;7.030;2022-08-21T11:41:42;27.00;88.00
51655;DHT22;37732;53.106;7.030;2022-08-21T11:44:24;26.80;80.10
51655;DHT22;37732;53.106;7.030;2022-08-21T11:52:54;26.60;89.80
51655;DHT22;37732;53.106;7.030;2022-08-21T11:58:40;26.60;90.60
51655;DHT22;37732;53.106;7.030;2022-08-21T12:01:12;26.60;89.40
51655;DHT22;37732;53.106;7.030;2022-08-21T12:06:34;26.40;91.10
51655;DHT22;37732;53.106;7.030;2022-08-21T12:09:11;26.30;92.30
51655;DHT22;37732;53.106;7.030;2022-08-21T12:12:06;26.30;92.40
51655;DHT22;37732;53.106;7.030;2022-08-21T12:17:08;26.20;93.50
51655;DHT22;37732;53.106;7.030;2022-08-21T12:19:41;26.10;93.70
51655;DHT22;37732;53.106;7.030;2022-08-21T12:22:10;26.00;94.00
51655;DHT22;37732;53.106;7.030;2022-08-21T12:24:45;26.00;94.20
51655;DHT22;37732;53.106;7.030;2022-08-21T12:28:01;25.90;94.30
51655;DHT22;37732;53.106;7.030;2022-08-21T12:33:05;25.70;96.50
51655;DHT22;37732;53.106;7.030;2022-08-21T12:35:40;25.70;96.20
51655;DHT22;37732;53.106;7.030;2022-08-21T12:38:18;25.60;95.20
51655;DHT22;37732;53.106;7.030;2022-08-21T12:41:00;25.50;94.60
51655;DHT22;37732;53.106;7.030;2022-08-21T12:46:01;25.20;94.90
51655;DHT22;37732;53.106;7.030;2022-08-21T12:48:41;25.10;95.80
51655;DHT22;37732;53.106;7.030;2022-08-21T12:51:15;25.10;95.20
51655;DHT22;37732;53.106;7.030;2022-08-21T12:53:56;25.10;94.30
51655;DHT22;37732;53.106;7.030;2022-08-21T12:56:28;25.10;95.90
51655;DHT22;37732;53.106;7.030;2022-08-21T12:58:57;25.30;95.00
51655;DHT22;37732;53.106;7.030;2022-08-21T13:01:31;25.30;92.00
51655;DHT22;37732;53.106;7.030;2022-08-21T13:04:02;25.50;94.30
51655;DHT22;37732;53.106;7.030;2022-08-21T13:06:32;25.70;93.80
51655;DHT22;37732;53.106;7.030;2022-08-21T13:09:06;26.00;92.10
51655;DHT22;37732;53.106;7.030;2022-08-21T13:11:33;26.20;92.00
51655;DHT22;37732;53.106;7.030;2022-08-21T13:14:00;26.30;89.10
51655;DHT22;37732;53.106;7.030;2022-08-21T13:16:28;26.20;88.60
51655;DHT22;37732;53.106;7.030;2022-08-21T13:19:04;26.00;90.40
51655;DHT22;37732;53.106;7.030;2022-08-21T13:21:39;26.00;93.40
51655;DHT22;37732;53.106;7.030;2022-08-21T13:24:26;25.90;92.60
51655;DHT22;37732;53.106;7.030;2022-08-21T13:26:52;25.80;92.60
51655;DHT22;37732;53.106;7.030;2022-08-21T13:29:21;25.60;93.20
51655;DHT22;37732;53.106;7.030;2022-08-21T13:31:51;25.50;93.00
51655;DHT22;37732;53.106;7.030;2022-08-21T13:34:18;25.40;93.40
51655;DHT22;37732;53.106;7.030;2022-08-21T13:36:45;25.30;95.10
51655;DHT22;37732;53.106;7.030;2022-08-21T13:39:19;25.20;94.70
51655;DHT22;37732;53.106;7.030;2022-08-21T13:41:48;25.10;94.80
51655;DHT22;37732;53.106;7.030;2022-08-21T13:47:09;25.00;96.70
51655;DHT22;37732;53.106;7.030;2022-08-21T13:49:42;24.80;96.20
51655;DHT22;37732;53.106;7.030;2022-08-21T13:52:20;24.80;96.70
51655;DHT22;37732;53.106;7.030;2022-08-21T13:55:00;24.70;95.70
51655;DHT22;37732;53.106;7.030;2022-08-21T13:57:29;24.60;96.30
51655;DHT22;37732;53.106;7.030;2022-08-21T14:00:18;24.50;96.50
51655;DHT22;37732;53.106;7.030;2022-08-21T14:02:48;24.50;96.70
51655;DHT22;37732;53.106;7.030;2022-08-21T14:05:21;24.50;97.30
51655;DHT22;37732;53.106;7.030;2022-08-21T14:07:50;24.60;96.90
51655;DHT22;37732;53.106;7.030;2022-08-21T14:10:19;24.70;98.20
51655;DHT22;37732;53.106;7.030;2022-08-21T14:12:59;24.70;97.50
51655;DHT22;37732;53.106;7.030;2022-08-21T14:15:29;24.70;95.80
51655;DHT22;37732;53.106;7.030;2022-08-21T14:18:17;24.50;96.40
51655;DHT22;37732;53.106;7.030;2022-08-21T14:20:43;24.50;96.40
51655;DHT22;37732;53.106;7.030;2022-08-21T14:23:10;24.40;96.80
51655;DHT22;37732;53.106;7.030;2022-08-21T14:25:44;24.40;96.40
51655;DHT22;37732;53.106;7.030;2022-08-21T14:28:27;24.30;96.10
51655;DHT22;37732;53.106;7.030;2022-08-21T14:30:54;24.30;95.80
51655;DHT22;37732;53.106;7.030;2022-08-21T14:33:32;24.30;96.50
51655;DHT22;37732;53.106;7.030;2022-08-21T14:35:58;24.40;96.80
51655;DHT22;37732;53.106;7.030;2022-08-21T14:38:26;24.50;96.80
51655;DHT22;37732;53.106;7.030;2022-08-21T14:40:56;24.50;96.10
51655;DHT22;37732;53.106;7.030;2022-08-21T14:43:23;24.60;96.30
51655;DHT22;37732;53.106;7.030;2022-08-21T14:45:50;24.70;95.50
51655;DHT22;37732;53.106;7.030;2022-08-21T14:48:16;24.60;93.70
51655;DHT22;37732;53.106;7.030;2022-08-21T14:50:41;24.60;93.30
51655;DHT22;37732;53.106;7.030;2022-08-21T14:53:07;24.70;93.90
51655;DHT22;37732;53.106;7.030;2022-08-21T14:55:34;24.70;94.20
51655;DHT22;37732;53.106;7.030;2022-08-21T14:58:20;24.70;94.30
51655;DHT22;37732;53.106;7.030;2022-08-21T15:00:49;24.70;93.70
51655;DHT22;37732;53.106;7.030;2022-08-21T15:03:15;24.60;93.00
51655;DHT22;37732;53.106;7.030;2022-08-21T15:05:40;24.70;93.30
51655;DHT22;37732;53.106;7.030;2022-08-21T15:08:06;24.70;93.60
51655;DHT22;37732;53.106;7.030;2022-08-21T15:10:33;24.70;93.50
51655;DHT22;37732;53.106;7.030;2022-08-21T15:13:00;24.80;93.90
51655;DHT22;37732;53.106;7.030;2022-08-21T15:15:25;25.00;93.70
51655;DHT22;37732;53.106;7.030;2022-08-21T15:17:51;25.10;93.30
51655;DHT22;37732;53.106;7.030;2022-08-21T15:20:17;25.20;93.40
51655;DHT22;37732;53.106;7.030;2022-08-21T15:22:42;25.30;93.40
51655;DHT22;37732;53.106;7.030;2022-08-21T15:25:08;25.30;92.90
51655;DHT22;37732;53.106;7.030;2022-08-21T15:27:35;25.10;93.30
51655;DHT22;37732;53.106;7.030;2022-08-21T15:30:02;25.10;94.50
51655;DHT22;37732;53.106;7.030;2022-08-21T15:32:28;25.20;95.10
51655;DHT22;37732;53.106;7.030;2022-08-21T15:34:55;25.20;95.40
51655;DHT22;37732;53.106;7.030;2022-08-21T15:37:22;25.20;95.40
51655;DHT22;37732;53.106;7.030;2022-08-21T15:39:50;25.30;95.70
51655;DHT22;37732;53.106;7.030;2022-08-21T15:42:16;25.30;95.20
51655;DHT22;37732;53.106;7.030;2022-08-21T15:44:42;25.20;95.80
51655;DHT22;37732;53.106;7.030;2022-08-21T15:47:12;25.10;96.30
51655;DHT22;37732;53.106;7.030;2022-08-21T15:49:39;25.00;96.10
51655;DHT22;37732;53.106;7.030;2022-08-21T15:52:05;24.90;96.10
51655;DHT22;37732;53.106;7.030;2022-08-21T15:54:30;24.70;95.50
51655;DHT22;37732;53.106;7.030;2022-08-21T15:56:56;24.60;96.10
51655;DHT22;37732;53.106;7.030;2022-08-21T15:59:22;24.50;96.40
51655;DHT22;37732;53.106;7.030;2022-08-21T16:01:51;24.40;96.60
51655;DHT22;37732;53.106;7.030;2022-08-21T16:04:27;24.40;96.90
51655;DHT22;37732;53.106;7.030;2022-08-21T16:06:53;24.30;97.20
51655;DHT22;37732;53.106;7.030;2022-08-21T16:09:19;24.20;97.20
51655;DHT22;37732;53.106;7.030;2022-08-21T16:11:45;24.10;97.30
51655;DHT22;37732;53.106;7.030;2022-08-21T16:14:15;23.90;97.70
51655;DHT22;37732;53.106;7.030;2022-08-21T16:16:41;23.90;97.90
51655;DHT22;37732;53.106;7.030;2022-08-21T16:19:07;23.80;97.90
51655;DHT22;37732;53.106;7.030;2022-08-21T16:21:34;23.60;97.70
51655;DHT22;37732;53.106;7.030;2022-08-21T16:24:00;23.60;97.70
51655;DHT22;37732;53.106;7.030;2022-08-21T16:26:26;23.50;98.10
51655;DHT22;37732;53.106;7.030;2022-08-21T16:28:55;23.40;98.30
51655;DHT22;37732;53.106;7.030;2022-08-21T16:31:23;23.40;98.60
51655;DHT22;37732;53.106;7.030;2022-08-21T16:33:51;23.30;98.80
51655;DHT22;37732;53.106;7.030;2022-08-21T16:36:18;23.30;98.90
51655;DHT22;37732;53.106;7.030;2022-08-21T16:38:44;23.20;99.20
51655;DHT22;37732;53.106;7.030;2022-08-21T16:41:15;23.10;99.30
51655;DHT22;37732;53.106;7.030;2022-08-21T16:43:43;23.00;99.50
51655;DHT22;37732;53.106;7.030;2022-08-21T16:46:11;23.00;99.90
51655;DHT22;37732;53.106;7.030;2022-08-21T16:48:37;23.00;99.90
51655;DHT22;37732;53.106;7.030;2022-08-21T16:51:03;23.00;99.90
51655;DHT22;37732;53.106;7.030;2022-08-21T16:53:29;23.00;99.90
51655;DHT22;37732;53.106;7.030;2022-08-21T16:55:56;23.00;99.90
51655;DHT22;37732;53.106;7.030;2022-08-21T16:58:35;23.00;99.90
51655;DHT22;37732;53.106;7.030;2022-08-21T17:01:06;22.90;99.90
51655;DHT22;37732;53.106;7.030;2022-08-21T17:03:38;22.80;99.90
51655;DHT22;37732;53.106;7.030;2022-08-21T17:06:05;22.70;99.90